createdAt,value
2018-08-13T00:02:15.131Z,99479.00
2018-08-13T00:04:42.688Z,99483.00
2018-08-13T00:07:10.462Z,99479.00
2018-08-13T00:09:41.804Z,99478.00
2018-08-13T00:12:10.178Z,99479.00
2018-08-13T00:14:37.800Z,99483.00
2018-08-13T00:17:06.344Z,99481.00
2018-08-13T00:19:34.142Z,99483.00
2018-08-13T00:22:02.151Z,99480.00
2018-08-13T00:24:29.715Z,99477.00
2018-08-13T00:26:57.796Z,99479.00
2018-08-13T00:29:25.383Z,99472.00
2018-08-13T00:31:52.923Z,99468.00
2018-08-13T00:34:20.945Z,99466.00
2018-08-13T00:36:48.553Z,99464.00
2018-08-13T00:39:16.101Z,99465.00
2018-08-13T00:41:43.720Z,99460.00
2018-08-13T00:44:11.340Z,99458.00
2018-08-13T00:46:38.915Z,99458.00
2018-08-13T00:49:06.618Z,99459.00
2018-08-13T00:51:35.204Z,99457.00
2018-08-13T00:54:02.803Z,99456.00
2018-08-13T00:56:30.690Z,99454.00
2018-08-13T00:58:58.257Z,99451.00
2018-08-13T01:01:25.868Z,99457.00
2018-08-13T01:03:53.507Z,99458.00
2018-08-13T01:06:21.271Z,99451.00
2018-08-13T01:08:48.895Z,99448.00
2018-08-13T01:11:16.680Z,99447.00
2018-08-13T01:13:44.268Z,99438.00
2018-08-13T01:16:11.830Z,99441.00
2018-08-13T01:18:39.480Z,99438.00
2018-08-13T01:21:07.081Z,99434.00
2018-08-13T01:23:34.625Z,99433.00
2018-08-13T01:26:02.409Z,99431.00
2018-08-13T01:28:29.947Z,99432.00
2018-08-13T01:30:57.519Z,99426.00
2018-08-13T01:33:25.265Z,99419.00
2018-08-13T01:35:52.828Z,99417.00
2018-08-13T01:38:20.474Z,99413.00
2018-08-13T01:40:48.083Z,99413.00
2018-08-13T01:43:15.634Z,99407.00
2018-08-13T01:45:43.256Z,99407.00
2018-08-13T01:48:10.870Z,99405.00
2018-08-13T01:50:38.481Z,99405.00
2018-08-13T01:53:24.609Z,99406.00
2018-08-13T01:56:28.738Z,99406.00
2018-08-13T01:59:35.015Z,99408.00
2018-08-13T02:02:41.214Z,99407.00
2018-08-13T02:05:47.067Z,99413.00
2018-08-13T02:08:17.836Z,99411.00
2018-08-13T02:11:24.384Z,99407.00
2018-08-13T02:14:30.394Z,99410.00
2018-08-13T02:17:23.850Z,99414.00
2018-08-13T02:20:30.166Z,99412.00
2018-08-13T02:23:36.656Z,99412.00
2018-08-13T02:26:42.512Z,99409.00
2018-08-13T02:29:17.971Z,99402.00
2018-08-13T02:32:24.415Z,99403.00
2018-08-13T02:35:30.751Z,99394.00
2018-08-13T02:38:13.876Z,99398.00
2018-08-13T02:40:41.998Z,99400.00
2018-08-13T02:43:09.597Z,99392.00
2018-08-13T02:46:15.313Z,99392.00
2018-08-13T02:48:42.902Z,99387.00
2018-08-13T02:51:10.588Z,99395.00
2018-08-13T02:53:38.307Z,99387.00
2018-08-13T02:56:05.979Z,99389.00
2018-08-13T02:58:33.524Z,99385.00
2018-08-13T03:01:01.129Z,99382.00
2018-08-13T03:03:28.680Z,99381.00
2018-08-13T03:05:56.299Z,99377.00
2018-08-13T03:08:23.848Z,99375.00
2018-08-13T03:10:51.389Z,99373.00
2018-08-13T03:13:19.154Z,99375.00
2018-08-13T03:15:46.776Z,99377.00
2018-08-13T03:18:14.341Z,99374.00
2018-08-13T03:20:42.144Z,99373.00
2018-08-13T03:23:09.704Z,99373.00
2018-08-13T03:25:37.385Z,99369.00
2018-08-13T03:28:05.020Z,99365.00
2018-08-13T03:30:32.578Z,99365.00
2018-08-13T03:33:00.270Z,99361.00
2018-08-13T03:35:27.870Z,99365.00
2018-08-13T03:37:55.471Z,99360.00
2018-08-13T03:40:23.068Z,99360.00
2018-08-13T03:42:51.416Z,99357.00
2018-08-13T03:45:19.024Z,99353.00
2018-08-13T03:47:46.592Z,99356.00
2018-08-13T03:50:14.373Z,99355.00
2018-08-13T03:52:42.282Z,99353.00
2018-08-13T03:55:11.083Z,99351.00
2018-08-13T03:57:39.726Z,99350.00
2018-08-13T04:00:11.471Z,99345.00
2018-08-13T04:02:39.197Z,99343.00
2018-08-13T04:05:07.771Z,99342.00
2018-08-13T04:07:36.400Z,99342.00
2018-08-13T04:10:07.125Z,99340.00
2018-08-13T04:12:34.710Z,99338.00
2018-08-13T04:15:02.494Z,99336.00
2018-08-13T04:17:30.062Z,99342.00
2018-08-13T04:19:57.623Z,99344.00
2018-08-13T04:22:25.388Z,99341.00
2018-08-13T04:24:52.938Z,99341.00
2018-08-13T04:27:20.504Z,99338.00
2018-08-13T04:29:48.195Z,99339.00
2018-08-13T04:32:15.820Z,99341.00
2018-08-13T04:34:43.392Z,99342.00
2018-08-13T04:37:11.500Z,99345.00
2018-08-13T04:39:39.058Z,99343.00
2018-08-13T04:42:06.759Z,99336.00
2018-08-13T04:44:34.488Z,99337.00
2018-08-13T04:47:02.123Z,99339.00
2018-08-13T04:49:29.804Z,99344.00
2018-08-13T04:51:57.363Z,99340.00
2018-08-13T04:54:24.968Z,99339.00
2018-08-13T04:56:52.649Z,99333.00
2018-08-13T04:59:20.310Z,99337.00
2018-08-13T05:01:48.070Z,99335.00
2018-08-13T05:04:16.268Z,99338.00
2018-08-13T05:06:44.436Z,99337.00
2018-08-13T05:09:12.083Z,99332.00
2018-08-13T05:11:40.242Z,99329.00
2018-08-13T05:14:08.710Z,99337.00
2018-08-13T05:16:37.029Z,99334.00
2018-08-13T05:19:05.919Z,99342.00
2018-08-13T05:21:33.575Z,99351.00
2018-08-13T05:24:01.130Z,99350.00
2018-08-13T05:26:28.972Z,99346.00
2018-08-13T05:28:56.581Z,99348.00
2018-08-13T05:31:24.135Z,99344.00
2018-08-13T05:33:52.088Z,99348.00
2018-08-13T05:36:19.738Z,99344.00
2018-08-13T05:38:47.362Z,99343.00
2018-08-13T05:41:14.988Z,99343.00
2018-08-13T05:43:42.596Z,99346.00
2018-08-13T05:46:10.167Z,99340.00
2018-08-13T05:48:37.723Z,99342.00
2018-08-13T05:51:05.352Z,99343.00
2018-08-13T05:53:33.400Z,99342.00
2018-08-13T05:56:01.537Z,99337.00
2018-08-13T05:58:29.261Z,99342.00
2018-08-13T06:00:57.107Z,99328.00
2018-08-13T06:03:25.235Z,99332.00
2018-08-13T06:05:52.872Z,99327.00
2018-08-13T06:08:20.737Z,99326.00
2018-08-13T06:10:48.299Z,99327.00
2018-08-13T06:13:15.838Z,99322.00
2018-08-13T06:15:43.462Z,99312.00
2018-08-13T06:18:11.178Z,99309.00
2018-08-13T06:20:38.754Z,99305.00
2018-08-13T06:23:06.435Z,99297.00
2018-08-13T06:25:34.086Z,99291.00
2018-08-13T06:28:01.857Z,99288.00
2018-08-13T06:30:29.438Z,99282.00
2018-08-13T06:32:57.084Z,99282.00
2018-08-13T06:35:24.820Z,99284.00
2018-08-13T06:37:52.710Z,99281.00
2018-08-13T06:40:20.276Z,99275.00
2018-08-13T06:42:47.859Z,99281.00
2018-08-13T06:45:15.595Z,99276.00
2018-08-13T06:47:43.255Z,99273.00
2018-08-13T06:50:12.165Z,99274.00
2018-08-13T06:52:40.573Z,99271.00
2018-08-13T06:55:08.603Z,99273.00
2018-08-13T06:57:36.744Z,99275.00
2018-08-13T07:00:09.637Z,99277.00
2018-08-13T07:02:37.570Z,99286.00
2018-08-13T07:05:06.864Z,99284.00
2018-08-13T07:07:34.991Z,99279.00
2018-08-13T07:10:02.732Z,99278.00
2018-08-13T07:12:30.327Z,99271.00
2018-08-13T07:14:58.278Z,99266.00
2018-08-13T07:17:25.827Z,99267.00
2018-08-13T07:19:54.061Z,99267.00
2018-08-13T07:22:21.759Z,99264.00
2018-08-13T07:24:49.287Z,99259.00
2018-08-13T07:27:17.621Z,99254.00
2018-08-13T07:29:45.943Z,99259.00
2018-08-13T07:32:14.512Z,99262.00
2018-08-13T07:34:42.316Z,99257.00
2018-08-13T07:37:10.274Z,99256.00
2018-08-13T07:39:37.864Z,99250.00
2018-08-13T07:42:05.435Z,99253.00
2018-08-13T07:44:33.172Z,99256.00
2018-08-13T07:47:01.236Z,99249.00
2018-08-13T07:49:28.796Z,99247.00
2018-08-13T07:51:56.432Z,99248.00
2018-08-13T07:54:24.956Z,99249.00
2018-08-13T07:56:52.531Z,99245.00
2018-08-13T07:59:20.133Z,99244.00
2018-08-13T08:01:47.828Z,99240.00
2018-08-13T08:04:15.582Z,99240.00
2018-08-13T08:06:43.924Z,99232.00
2018-08-13T08:09:12.636Z,99238.00
2018-08-13T08:11:41.409Z,99236.00
2018-08-13T08:14:09.114Z,99239.00
2018-08-13T08:19:14.012Z,99233.00
2018-08-13T08:21:41.859Z,99230.00
2018-08-13T08:24:09.481Z,99233.00
2018-08-13T08:26:37.408Z,99229.00
2018-08-13T08:29:06.295Z,99227.00
2018-08-13T08:31:33.917Z,99225.00
2018-08-13T08:34:01.878Z,99226.00
2018-08-13T08:36:36.199Z,99220.00
2018-08-13T08:39:09.024Z,99222.00
2018-08-13T08:41:36.649Z,99224.00
2018-08-13T08:44:04.387Z,99222.00
2018-08-13T08:46:32.147Z,99219.00
2018-08-13T08:48:59.823Z,99215.00
2018-08-13T08:51:27.435Z,99208.00
2018-08-13T08:53:55.439Z,99210.00
2018-08-13T08:56:23.115Z,99206.00
2018-08-13T08:58:50.774Z,99202.00
2018-08-13T09:01:18.680Z,99204.00
2018-08-13T09:03:46.321Z,99198.00
2018-08-13T09:06:14.012Z,99190.00
2018-08-13T09:08:42.356Z,99187.00
2018-08-13T09:11:10.222Z,99184.00
2018-08-13T09:13:37.973Z,99189.00
2018-08-13T09:16:06.544Z,99183.00
2018-08-13T09:18:51.816Z,99189.00
2018-08-13T09:21:34.364Z,99196.00
2018-08-13T09:24:19.773Z,99192.00
2018-08-13T09:27:05.349Z,99189.00
2018-08-13T09:29:50.457Z,99185.00
2018-08-13T09:32:35.659Z,99187.00
2018-08-13T09:35:37.802Z,99182.00
2018-08-13T09:38:05.914Z,99184.00
2018-08-13T09:40:33.799Z,99171.00
2018-08-13T09:43:02.231Z,99173.00
2018-08-13T09:45:29.877Z,99172.00
2018-08-13T09:47:57.605Z,99166.00
2018-08-13T09:50:25.864Z,99165.00
2018-08-13T09:52:53.697Z,99162.00
2018-08-13T09:55:22.225Z,99161.00
2018-08-13T09:57:50.952Z,99159.00
2018-08-13T10:00:26.186Z,99157.00
2018-08-13T10:02:56.120Z,99158.00
2018-08-13T10:05:24.630Z,99155.00
2018-08-13T10:07:52.267Z,99156.00
2018-08-13T10:10:21.041Z,99159.00
2018-08-13T10:12:48.795Z,99146.00
2018-08-13T10:15:16.419Z,99142.00
2018-08-13T10:17:44.235Z,99142.00
2018-08-13T10:20:17.555Z,99136.00
2018-08-13T10:22:45.392Z,99133.00
2018-08-13T10:25:13.580Z,99130.00
2018-08-13T10:27:41.375Z,99128.00
2018-08-13T10:30:11.231Z,99121.00
2018-08-13T10:32:39.724Z,99128.00
2018-08-13T10:35:07.816Z,99120.00
2018-08-13T10:37:35.861Z,99118.00
2018-08-13T10:40:06.360Z,99115.00
2018-08-13T10:42:34.340Z,99114.00
2018-08-13T10:45:02.133Z,99113.00
2018-08-13T10:47:29.743Z,99106.00
2018-08-13T10:49:57.313Z,99107.00
2018-08-13T10:52:25.227Z,99107.00
2018-08-13T10:54:52.863Z,99102.00
2018-08-13T10:57:20.536Z,99100.00
2018-08-13T10:59:48.248Z,99088.00
2018-08-13T11:02:16.280Z,99086.00
2018-08-13T11:04:43.906Z,99086.00
2018-08-13T11:07:11.543Z,99081.00
2018-08-13T11:09:39.269Z,99086.00
2018-08-13T11:12:06.966Z,99088.00
2018-08-13T11:14:34.638Z,99083.00
2018-08-13T11:17:02.503Z,99081.00
2018-08-13T11:19:30.201Z,99079.00
2018-08-13T11:21:57.883Z,99071.00
2018-08-13T11:24:25.700Z,99070.00
2018-08-13T11:26:53.519Z,99061.00
2018-08-13T11:29:21.125Z,99067.00
2018-08-13T11:31:49.115Z,99053.00
2018-08-13T11:34:16.700Z,99056.00
2018-08-13T11:36:44.476Z,99051.00
2018-08-13T11:39:12.333Z,99043.00
2018-08-13T11:41:39.961Z,99038.00
2018-08-13T11:44:07.736Z,99036.00
2018-08-13T11:46:35.569Z,99038.00
2018-08-13T11:49:03.653Z,99033.00
2018-08-13T11:51:31.387Z,99031.00
2018-08-13T11:53:59.002Z,99023.00
2018-08-13T11:56:27.085Z,99035.00
2018-08-13T11:58:54.929Z,99024.00
2018-08-13T12:01:22.605Z,99025.00
2018-08-13T12:03:50.287Z,99018.00
2018-08-13T12:06:18.235Z,99024.00
2018-08-13T12:08:46.087Z,99023.00
2018-08-13T12:11:13.977Z,99028.00
2018-08-13T12:13:41.589Z,99031.00
2018-08-13T12:16:09.197Z,99017.00
2018-08-13T12:18:37.469Z,99022.00
2018-08-13T12:21:05.652Z,99021.00
2018-08-13T12:23:33.332Z,99020.00
2018-08-13T12:26:01.983Z,99025.00
2018-08-13T12:28:29.696Z,99012.00
2018-08-13T12:30:57.406Z,99027.00
2018-08-13T12:33:25.000Z,99027.00
2018-08-13T12:35:52.628Z,99024.00
2018-08-13T12:38:20.406Z,99023.00
2018-08-13T12:40:47.971Z,99016.00
2018-08-13T12:43:15.870Z,99021.00
2018-08-13T12:45:43.424Z,99021.00
2018-08-13T12:48:11.048Z,99013.00
2018-08-13T12:50:39.188Z,99008.00
2018-08-13T12:53:07.224Z,99003.00
2018-08-13T12:55:34.822Z,99008.00
2018-08-13T12:58:02.795Z,99014.00
2018-08-13T13:00:30.375Z,99013.00
2018-08-13T13:02:58.150Z,99006.00
2018-08-13T13:05:26.497Z,99006.00
2018-08-13T13:07:54.123Z,99002.00
2018-08-13T13:10:21.820Z,98996.00
2018-08-13T13:12:49.749Z,98997.00
2018-08-13T13:15:19.204Z,98998.00
2018-08-13T13:17:47.279Z,98994.00
2018-08-13T13:20:20.184Z,98998.00
2018-08-13T13:22:48.151Z,98992.00
2018-08-13T13:25:16.211Z,98988.00
2018-08-13T13:27:43.768Z,98990.00
2018-08-13T13:30:13.008Z,98990.00
2018-08-13T13:32:40.814Z,98986.00
2018-08-13T13:35:10.488Z,98981.00
2018-08-13T13:37:38.252Z,98976.00
2018-08-13T13:40:10.519Z,98973.00
2018-08-13T13:42:38.656Z,98971.00
2018-08-13T13:45:06.772Z,98970.00
2018-08-13T13:47:34.725Z,98974.00
2018-08-13T13:50:02.552Z,98973.00
2018-08-13T13:52:30.171Z,98969.00
2018-08-13T13:54:57.907Z,98966.00
2018-08-13T13:57:25.653Z,98966.00
2018-08-13T13:59:53.362Z,98965.00
2018-08-13T14:02:20.931Z,98967.00
2018-08-13T14:04:49.010Z,98960.00
2018-08-13T14:07:17.684Z,98969.00
2018-08-13T14:09:45.272Z,98982.00
2018-08-13T14:12:13.038Z,98981.00
2018-08-13T14:14:41.379Z,98982.00
2018-08-13T14:17:08.935Z,98989.00
2018-08-13T14:19:36.766Z,98991.00
2018-08-13T14:22:04.976Z,98987.00
2018-08-13T14:24:32.643Z,98990.00
2018-08-13T14:27:00.272Z,99009.00
2018-08-13T14:29:27.903Z,99006.00
2018-08-13T14:31:55.933Z,99006.00
2018-08-13T14:34:23.686Z,99012.00
2018-08-13T14:36:51.298Z,99012.00
2018-08-13T14:39:18.958Z,99028.00
2018-08-13T14:41:46.755Z,99026.00
2018-08-13T14:44:14.387Z,99032.00
2018-08-13T14:46:42.056Z,99040.00
2018-08-13T14:49:09.786Z,99048.00
2018-08-13T14:51:37.487Z,99058.00
2018-08-13T14:54:05.784Z,99074.00
2018-08-13T14:56:33.663Z,99080.00
2018-08-13T14:59:01.430Z,99089.00
2018-08-13T15:01:28.968Z,99094.00
2018-08-13T15:03:56.607Z,99090.00
2018-08-13T15:06:30.686Z,99100.00
2018-08-13T15:08:58.308Z,99106.00
2018-08-13T15:11:32.022Z,99108.00
2018-08-13T15:13:59.721Z,99120.00
2018-08-13T15:16:27.354Z,99119.00
2018-08-13T15:18:55.584Z,99121.00
2018-08-13T15:21:24.058Z,99128.00
2018-08-13T15:23:51.623Z,99129.00
2018-08-13T15:26:19.228Z,99140.00
2018-08-13T15:28:46.866Z,99141.00
2018-08-13T15:31:14.391Z,99135.00
2018-08-13T15:33:42.144Z,99144.00
2018-08-13T15:36:13.420Z,99142.00
2018-08-13T15:38:42.720Z,99156.00
2018-08-13T15:41:10.336Z,99169.00
2018-08-13T15:43:44.757Z,99174.00
2018-08-13T15:46:12.381Z,99180.00
2018-08-13T15:48:39.937Z,99184.00
2018-08-13T15:51:07.589Z,99184.00
2018-08-13T15:53:35.200Z,99189.00
2018-08-13T15:56:03.097Z,99193.00
2018-08-13T15:58:30.836Z,99198.00
2018-08-13T16:00:58.463Z,99201.00
2018-08-13T16:03:26.901Z,99195.00
2018-08-13T16:05:54.751Z,99196.00
2018-08-13T16:08:22.363Z,99188.00
2018-08-13T16:10:49.956Z,99180.00
2018-08-13T16:13:17.850Z,99178.00
2018-08-13T16:15:45.535Z,99177.00
2018-08-13T16:18:13.224Z,99168.00
2018-08-13T16:20:40.881Z,99163.00
2018-08-13T16:23:08.516Z,99162.00
2018-08-13T16:25:36.123Z,99149.00
2018-08-13T16:28:04.143Z,99142.00
2018-08-13T16:30:31.860Z,99142.00
2018-08-13T16:32:59.453Z,99141.00
2018-08-13T16:35:27.285Z,99140.00
2018-08-13T16:37:55.179Z,99146.00
2018-08-13T16:40:22.841Z,99143.00
2018-08-13T16:42:51.253Z,99141.00
2018-08-13T16:45:20.123Z,99144.00
2018-08-13T16:47:47.723Z,99147.00
2018-08-13T16:50:28.671Z,99144.00
2018-08-13T16:52:56.859Z,99141.00
2018-08-13T16:55:25.761Z,99143.00
2018-08-13T16:57:53.651Z,99146.00
2018-08-13T17:00:23.628Z,99143.00
2018-08-13T17:02:51.506Z,99145.00
2018-08-13T17:05:19.499Z,99142.00
2018-08-13T17:07:47.130Z,99141.00
2018-08-13T17:10:17.875Z,99135.00
2018-08-13T17:12:46.288Z,99141.00
2018-08-13T17:15:13.907Z,99155.00
2018-08-13T17:17:42.175Z,99165.00
2018-08-13T17:20:13.250Z,99170.00
2018-08-13T17:22:40.829Z,99169.00
2018-08-13T17:25:11.387Z,99170.00
2018-08-13T17:27:39.984Z,99168.00
2018-08-13T17:30:17.209Z,99169.00
2018-08-13T17:32:46.436Z,99166.00
2018-08-13T17:35:15.268Z,99165.00
2018-08-13T17:37:43.338Z,99163.00
2018-08-13T17:40:18.354Z,99160.00
2018-08-13T17:42:46.310Z,99157.00
2018-08-13T17:45:13.880Z,99146.00
2018-08-13T17:47:41.886Z,99133.00
2018-08-13T17:50:13.132Z,99121.00
2018-08-13T17:52:41.255Z,99123.00
2018-08-13T17:55:10.389Z,99129.00
2018-08-13T17:57:38.483Z,99134.00
2018-08-13T18:00:19.827Z,99149.00
2018-08-13T18:02:47.973Z,99153.00
2018-08-13T18:05:18.398Z,99154.00
2018-08-13T18:07:47.688Z,99155.00
2018-08-13T18:10:20.771Z,99161.00
2018-08-13T18:12:48.721Z,99170.00
2018-08-13T18:15:17.030Z,99170.00
2018-08-13T18:17:45.442Z,99173.00
2018-08-13T18:20:14.780Z,99175.00
2018-08-13T18:22:42.459Z,99182.00
2018-08-13T18:25:11.331Z,99186.00
2018-08-13T18:27:40.142Z,99190.00
2018-08-13T18:30:10.883Z,99195.00
2018-08-13T18:32:39.297Z,99198.00
2018-08-13T18:35:07.036Z,99207.00
2018-08-13T18:37:35.250Z,99210.00
2018-08-13T18:40:05.193Z,99214.00
2018-08-13T18:42:32.863Z,99223.00
2018-08-13T18:45:01.184Z,99232.00
2018-08-13T18:47:30.294Z,99240.00
2018-08-13T18:49:57.898Z,99245.00
2018-08-13T18:52:25.756Z,99245.00
2018-08-13T18:54:53.659Z,99243.00
2018-08-13T18:57:22.647Z,99257.00
2018-08-13T18:59:51.418Z,99265.00
2018-08-13T19:02:20.049Z,99270.00
2018-08-13T19:04:49.320Z,99275.00
2018-08-13T19:07:17.274Z,99281.00
2018-08-13T19:09:45.758Z,99280.00
2018-08-13T19:12:13.891Z,99267.00
2018-08-13T19:14:42.829Z,99262.00
2018-08-13T19:17:11.375Z,99269.00
2018-08-13T19:19:39.974Z,99268.00
2018-08-13T19:22:08.315Z,99268.00
2018-08-13T19:24:38.830Z,99261.00
2018-08-13T19:27:14.113Z,99258.00
2018-08-13T19:29:42.161Z,99260.00
2018-08-13T19:32:10.712Z,99253.00
2018-08-13T19:34:39.725Z,99254.00
2018-08-13T19:37:07.547Z,99269.00
2018-08-13T19:39:35.681Z,99276.00
2018-08-13T19:42:03.251Z,99279.00
2018-08-13T19:44:31.480Z,99272.00
2018-08-13T19:46:59.093Z,99276.00
2018-08-13T19:49:26.747Z,99263.00
2018-08-13T19:51:54.393Z,99257.00
2018-08-13T19:54:22.167Z,99262.00
2018-08-13T19:56:49.726Z,99251.00
2018-08-13T19:59:17.251Z,99243.00
2018-08-13T20:01:44.790Z,99245.00
2018-08-13T20:04:12.461Z,99253.00
2018-08-13T20:06:40.244Z,99254.00
2018-08-13T20:09:09.376Z,99256.00
2018-08-13T20:11:37.128Z,99263.00
2018-08-13T20:14:04.691Z,99261.00
2018-08-13T20:16:32.540Z,99266.00
2018-08-13T20:19:00.176Z,99256.00
2018-08-13T20:21:27.747Z,99254.00
2018-08-13T20:23:55.663Z,99267.00
2018-08-13T20:26:23.973Z,99272.00
2018-08-13T20:28:51.557Z,99276.00
2018-08-13T20:31:19.116Z,99281.00
2018-08-13T20:33:47.019Z,99276.00
2018-08-13T20:36:15.062Z,99274.00
2018-08-13T20:38:43.307Z,99268.00
2018-08-13T20:41:13.336Z,99263.00
2018-08-13T20:43:40.975Z,99259.00
2018-08-13T20:46:08.576Z,99261.00
2018-08-13T20:48:36.371Z,99263.00
2018-08-13T20:51:04.328Z,99261.00
2018-08-13T20:53:31.896Z,99265.00
2018-08-13T20:55:59.738Z,99266.00
2018-08-13T20:58:27.258Z,99272.00
2018-08-13T21:00:54.891Z,99277.00
2018-08-13T21:03:22.538Z,99273.00
2018-08-13T21:05:50.085Z,99272.00
2018-08-13T21:08:17.774Z,99276.00
2018-08-13T21:10:45.345Z,99277.00
2018-08-13T21:13:13.053Z,99284.00
2018-08-13T21:15:40.668Z,99285.00
2018-08-13T21:18:08.276Z,99284.00
2018-08-13T21:20:36.075Z,99284.00
2018-08-13T21:23:03.689Z,99281.00
2018-08-13T21:25:31.290Z,99274.00
2018-08-13T21:27:59.163Z,99280.00
2018-08-13T21:30:26.815Z,99277.00
2018-08-13T21:32:54.550Z,99274.00
2018-08-13T21:35:23.624Z,99275.00
2018-08-13T21:37:51.598Z,99267.00
2018-08-13T21:40:19.171Z,99274.00
2018-08-13T21:42:47.790Z,99271.00
2018-08-13T21:45:15.446Z,99270.00
2018-08-13T21:47:43.101Z,99270.00
2018-08-13T21:50:14.393Z,99271.00
2018-08-13T21:52:42.272Z,99268.00
2018-08-13T21:55:10.340Z,99268.00
2018-08-13T21:57:37.940Z,99267.00
2018-08-13T22:00:13.585Z,99269.00
2018-08-13T22:02:41.137Z,99272.00
2018-08-13T22:05:08.748Z,99274.00
2018-08-13T22:07:36.584Z,99280.00
2018-08-13T22:10:07.260Z,99280.00
2018-08-13T22:12:35.053Z,99279.00
2018-08-13T22:15:20.003Z,99287.00
2018-08-13T22:17:47.665Z,99294.00
2018-08-13T22:20:15.244Z,99292.00
2018-08-13T22:22:42.931Z,99304.00
2018-08-13T22:25:14.822Z,99300.00
2018-08-13T22:27:42.411Z,99295.00
2018-08-13T22:30:10.600Z,99295.00
2018-08-13T22:32:38.506Z,99293.00
2018-08-13T22:35:07.456Z,99293.00
2018-08-13T22:37:37.403Z,99288.00
2018-08-13T22:40:05.837Z,99279.00
2018-08-13T22:42:33.400Z,99286.00
2018-08-13T22:45:01.776Z,99284.00
2018-08-13T22:47:30.167Z,99282.00
2018-08-13T22:49:57.813Z,99282.00
2018-08-13T22:52:25.385Z,99286.00
2018-08-13T22:54:53.272Z,99285.00
2018-08-13T22:57:20.909Z,99293.00
2018-08-13T22:59:48.497Z,99290.00
2018-08-13T23:02:16.288Z,99292.00
2018-08-13T23:04:43.919Z,99293.00
2018-08-13T23:07:11.502Z,99300.00
2018-08-13T23:09:39.384Z,99302.00
2018-08-13T23:12:08.821Z,99306.00
2018-08-13T23:14:36.679Z,99312.00
2018-08-13T23:17:04.840Z,99314.00
2018-08-13T23:19:32.601Z,99312.00
2018-08-13T23:22:00.259Z,99317.00
2018-08-13T23:24:28.028Z,99311.00
2018-08-13T23:26:56.008Z,99311.00
2018-08-13T23:29:23.648Z,99314.00
2018-08-13T23:31:51.208Z,99308.00
2018-08-13T23:34:19.145Z,99308.00
2018-08-13T23:36:46.741Z,99307.00
2018-08-13T23:39:14.335Z,99309.00
2018-08-13T23:41:42.692Z,99311.00
2018-08-13T23:44:10.440Z,99308.00
2018-08-13T23:46:38.267Z,99305.00
2018-08-13T23:49:06.055Z,99306.00
2018-08-13T23:51:33.870Z,99303.00
2018-08-13T23:54:35.603Z,99303.00
2018-08-13T23:57:41.034Z,99303.00
